createdAt,value
2016-11-16T00:00:04.944Z,0
2016-11-16T00:00:46.702Z,0
2016-11-16T00:01:28.284Z,0
2016-11-16T00:02:09.899Z,0
2016-11-16T00:02:51.565Z,0
2016-11-16T00:03:33.262Z,0
2016-11-16T00:04:14.967Z,0
2016-11-16T00:04:56.448Z,0
2016-11-16T00:07:17.308Z,0
2016-11-16T00:07:58.798Z,0
2016-11-16T00:08:40.428Z,0
2016-11-16T00:09:22.110Z,0
2016-11-16T00:10:03.766Z,0
2016-11-16T00:10:45.485Z,0
2016-11-16T00:11:27.141Z,0
2016-11-16T00:12:08.774Z,0
2016-11-16T00:12:50.386Z,0
2016-11-16T00:13:32.069Z,0
2016-11-16T00:17:57.521Z,0
2016-11-16T00:18:39.310Z,0
2016-11-16T00:19:20.899Z,0
2016-11-16T00:21:57.376Z,0
2016-11-16T00:22:39.044Z,0
2016-11-16T00:24:54.446Z,0
2016-11-16T00:25:36.113Z,0
2016-11-16T00:26:17.719Z,0
2016-11-16T00:26:59.456Z,0
2016-11-16T00:27:41.127Z,0
2016-11-16T00:29:56.238Z,0
2016-11-16T00:34:21.966Z,0
2016-11-16T00:35:03.626Z,0
2016-11-16T00:37:24.425Z,0
2016-11-16T00:38:06.142Z,0
2016-11-16T00:38:47.806Z,0
2016-11-16T00:39:29.517Z,0
2016-11-16T00:40:11.134Z,0
2016-11-16T00:40:52.830Z,0
2016-11-16T00:41:34.634Z,0
2016-11-16T00:42:16.331Z,0
2016-11-16T00:42:57.905Z,0
2016-11-16T00:43:39.624Z,0
2016-11-16T00:44:21.224Z,0
2016-11-16T00:45:02.902Z,0
2016-11-16T00:45:44.759Z,0
2016-11-16T00:46:26.554Z,0
2016-11-16T00:47:08.052Z,0
2016-11-16T00:49:08.140Z,0
2016-11-16T00:49:49.830Z,0
2016-11-16T00:53:39.363Z,0
2016-11-16T00:57:49.437Z,0
2016-11-16T00:58:31.149Z,0
2016-11-16T00:59:12.847Z,0
2016-11-16T00:59:54.601Z,0
2016-11-16T01:00:36.271Z,0
2016-11-16T01:01:17.961Z,0
2016-11-16T01:01:59.549Z,0
2016-11-16T01:06:19.811Z,0
2016-11-16T01:08:35.154Z,0
2016-11-16T01:09:16.873Z,0
2016-11-16T01:13:16.547Z,0
2016-11-16T01:13:58.212Z,0
2016-11-16T01:14:39.873Z,0
2016-11-16T01:15:21.647Z,0
2016-11-16T01:16:03.309Z,0
2016-11-16T01:16:44.855Z,0
2016-11-16T01:18:44.931Z,0
2016-11-16T01:19:26.675Z,0
2016-11-16T01:20:08.276Z,0
2016-11-16T01:20:49.908Z,0
2016-11-16T01:21:31.620Z,0
2016-11-16T01:23:47.047Z,0
2016-11-16T01:28:12.605Z,0
2016-11-16T01:28:56.307Z,0
2016-11-16T01:29:38.088Z,0
2016-11-16T01:30:19.779Z,0
2016-11-16T01:31:01.632Z,0
2016-11-16T01:31:43.294Z,0
2016-11-16T01:32:24.890Z,0
2016-11-16T01:33:06.475Z,0
2016-11-16T01:33:48.061Z,0
2016-11-16T01:34:29.499Z,0
2016-11-16T01:35:11.256Z,0
2016-11-16T01:35:52.970Z,0
2016-11-16T01:36:34.624Z,0
2016-11-16T01:37:16.334Z,0
2016-11-16T01:37:57.995Z,0
2016-11-16T01:38:39.764Z,0
2016-11-16T01:39:21.516Z,0
2016-11-16T01:40:03.245Z,0
2016-11-16T01:40:44.969Z,0
2016-11-16T01:41:26.541Z,0
2016-11-16T01:42:08.210Z,0
2016-11-16T01:42:49.849Z,0
2016-11-16T01:43:31.420Z,0
2016-11-16T01:44:12.994Z,0
2016-11-16T01:44:54.638Z,0
2016-11-16T01:45:36.357Z,0
2016-11-16T01:46:18.142Z,0
2016-11-16T01:46:59.858Z,0
2016-11-16T01:47:41.518Z,0
2016-11-16T01:48:23.277Z,0
2016-11-16T01:49:04.934Z,0
2016-11-16T01:49:46.605Z,0
2016-11-16T01:50:28.066Z,0
2016-11-16T01:51:09.746Z,0
2016-11-16T01:51:51.421Z,0
2016-11-16T01:52:33.089Z,0
2016-11-16T01:53:14.832Z,0
2016-11-16T01:53:56.430Z,0
2016-11-16T01:54:38.051Z,0
2016-11-16T01:55:19.714Z,0
2016-11-16T01:56:01.330Z,0
2016-11-16T01:56:43.055Z,0
2016-11-16T01:57:24.428Z,0
2016-11-16T01:58:06.044Z,0
2016-11-16T01:58:47.754Z,0
2016-11-16T01:59:29.032Z,0
2016-11-16T02:00:09.621Z,0
2016-11-16T02:00:50.113Z,0
2016-11-16T02:01:30.626Z,0
2016-11-16T02:02:11.125Z,0
2016-11-16T02:02:51.657Z,0
2016-11-16T02:03:32.152Z,0
2016-11-16T02:04:12.647Z,0
2016-11-16T02:04:53.145Z,0
2016-11-16T02:05:33.662Z,0
2016-11-16T02:06:14.214Z,0
2016-11-16T02:06:54.731Z,0
2016-11-16T02:07:35.228Z,0
2016-11-16T02:08:15.788Z,0
2016-11-16T02:08:56.312Z,0
2016-11-16T02:09:36.802Z,0
2016-11-16T02:10:17.362Z,0
2016-11-16T02:10:57.859Z,0
2016-11-16T02:11:38.361Z,0
2016-11-16T02:12:18.886Z,0
2016-11-16T02:12:59.399Z,0
2016-11-16T02:13:39.895Z,0
2016-11-16T02:14:20.422Z,0
2016-11-16T02:15:00.958Z,0
2016-11-16T02:15:41.507Z,0
2016-11-16T02:16:22.039Z,0
2016-11-16T02:17:02.533Z,0
2016-11-16T02:17:43.046Z,0
2016-11-16T02:18:23.550Z,0
2016-11-16T02:19:04.039Z,0
2016-11-16T02:19:44.562Z,0
2016-11-16T02:20:25.059Z,0
2016-11-16T02:21:05.571Z,0
2016-11-16T02:21:46.088Z,0
2016-11-16T02:22:26.628Z,0
2016-11-16T02:23:07.143Z,0
2016-11-16T02:23:47.639Z,0
2016-11-16T02:24:28.157Z,0
2016-11-16T02:25:08.677Z,0
2016-11-16T02:25:49.178Z,0
2016-11-16T02:26:29.670Z,0
2016-11-16T02:27:10.164Z,0
2016-11-16T02:27:50.676Z,0
2016-11-16T02:28:31.206Z,0
2016-11-16T02:29:11.713Z,0
2016-11-16T02:29:52.208Z,0
2016-11-16T02:30:32.749Z,0
2016-11-16T02:31:13.303Z,0
2016-11-16T02:31:53.792Z,0
2016-11-16T02:32:34.342Z,0
2016-11-16T02:33:14.841Z,0
2016-11-16T02:33:55.368Z,0
2016-11-16T02:34:35.894Z,0
2016-11-16T02:35:16.402Z,0
2016-11-16T02:35:56.900Z,0
2016-11-16T02:36:37.428Z,0
2016-11-16T02:37:17.950Z,0
2016-11-16T02:37:58.479Z,0
2016-11-16T02:38:38.981Z,0
2016-11-16T02:39:19.492Z,0
2016-11-16T02:40:00.005Z,0
2016-11-16T02:40:40.510Z,0
2016-11-16T02:41:21.047Z,0
2016-11-16T02:42:01.614Z,0
2016-11-16T02:42:42.136Z,0
2016-11-16T02:43:22.641Z,0
2016-11-16T02:44:03.148Z,0
2016-11-16T02:44:43.667Z,0
2016-11-16T02:45:24.206Z,0
2016-11-16T02:46:04.717Z,0
2016-11-16T02:46:45.233Z,0
2016-11-16T02:47:25.742Z,0
2016-11-16T02:48:06.265Z,0
2016-11-16T02:48:46.784Z,0
2016-11-16T02:49:27.352Z,0
2016-11-16T02:50:07.854Z,0
2016-11-16T02:50:48.365Z,0
2016-11-16T02:51:28.899Z,0
2016-11-16T02:52:09.431Z,0
2016-11-16T02:52:49.926Z,0
2016-11-16T02:53:30.467Z,0
2016-11-16T02:54:11.017Z,0
2016-11-16T02:54:51.534Z,0
2016-11-16T02:55:32.051Z,0
2016-11-16T02:56:12.622Z,0
2016-11-16T02:56:53.146Z,0
2016-11-16T02:57:33.637Z,0
2016-11-16T02:58:14.177Z,0
2016-11-16T02:58:54.670Z,0
2016-11-16T02:59:35.171Z,0
2016-11-16T03:00:15.675Z,0
2016-11-16T03:00:56.159Z,0
2016-11-16T03:01:36.674Z,0
2016-11-16T03:02:17.224Z,0
2016-11-16T03:02:57.727Z,0
2016-11-16T03:03:38.225Z,0
2016-11-16T03:04:18.729Z,0
2016-11-16T03:04:59.279Z,0
2016-11-16T03:05:39.767Z,0
2016-11-16T03:06:20.279Z,0
2016-11-16T03:07:02.437Z,0
2016-11-16T03:07:43.022Z,0
2016-11-16T03:08:23.574Z,0
2016-11-16T03:09:04.070Z,0
2016-11-16T03:09:44.567Z,0
2016-11-16T03:10:25.063Z,0
2016-11-16T03:11:05.577Z,0
2016-11-16T03:11:46.081Z,0
2016-11-16T03:12:26.621Z,0
2016-11-16T03:13:07.142Z,0
2016-11-16T03:13:47.646Z,0
2016-11-16T03:14:28.140Z,0
2016-11-16T03:15:08.633Z,0
2016-11-16T03:15:49.150Z,0
2016-11-16T03:16:29.689Z,0
2016-11-16T03:17:10.221Z,0
2016-11-16T03:17:50.766Z,0
2016-11-16T03:18:31.256Z,0
2016-11-16T03:19:11.784Z,0
2016-11-16T03:19:54.297Z,0
2016-11-16T03:20:34.799Z,0
2016-11-16T03:21:15.311Z,0
2016-11-16T03:21:55.812Z,0
2016-11-16T03:22:36.314Z,0
2016-11-16T03:23:16.848Z,0
2016-11-16T03:23:57.360Z,0
2016-11-16T03:24:37.911Z,0
2016-11-16T03:25:18.395Z,0
2016-11-16T03:25:58.914Z,0
2016-11-16T03:26:39.474Z,0
2016-11-16T03:27:20.019Z,0
2016-11-16T03:28:00.511Z,0
2016-11-16T03:28:41.050Z,0
2016-11-16T03:29:21.540Z,0
2016-11-16T03:30:02.047Z,0
2016-11-16T03:30:42.585Z,0
2016-11-16T03:31:23.113Z,0
2016-11-16T03:32:03.645Z,0
2016-11-16T03:32:44.137Z,0
2016-11-16T03:33:24.664Z,0
2016-11-16T03:34:05.205Z,0
2016-11-16T03:34:47.439Z,0
2016-11-16T03:35:27.953Z,0
2016-11-16T03:36:08.449Z,0
2016-11-16T03:36:48.986Z,0
2016-11-16T03:37:29.476Z,0
2016-11-16T03:38:09.968Z,0
2016-11-16T03:38:50.500Z,0
2016-11-16T03:39:30.990Z,0
2016-11-16T03:40:11.507Z,0
2016-11-16T03:40:52.011Z,0
2016-11-16T03:41:32.537Z,0
2016-11-16T03:42:13.056Z,0
2016-11-16T03:42:53.571Z,0
2016-11-16T03:43:34.067Z,0
2016-11-16T03:44:14.570Z,0
2016-11-16T03:44:55.066Z,0
2016-11-16T03:45:35.560Z,0
2016-11-16T03:46:16.062Z,0
2016-11-16T03:46:56.553Z,0
2016-11-16T03:47:37.046Z,0
2016-11-16T03:48:17.562Z,0
2016-11-16T03:48:58.056Z,0
2016-11-16T03:49:38.565Z,0
2016-11-16T03:50:19.069Z,0
2016-11-16T03:50:59.585Z,0
2016-11-16T03:51:40.089Z,0
2016-11-16T03:52:20.606Z,0
2016-11-16T03:53:01.121Z,0
2016-11-16T03:53:41.634Z,0
2016-11-16T03:54:22.138Z,0
2016-11-16T03:55:02.668Z,0
2016-11-16T03:55:43.182Z,0
2016-11-16T03:56:23.700Z,0
2016-11-16T03:57:04.237Z,0
2016-11-16T03:57:44.769Z,0
2016-11-16T03:58:25.283Z,0
2016-11-16T03:59:05.790Z,0
2016-11-16T03:59:46.288Z,0
2016-11-16T04:00:26.827Z,0
2016-11-16T04:01:07.337Z,0
2016-11-16T04:01:47.815Z,0
2016-11-16T04:02:28.328Z,0
2016-11-16T04:03:08.848Z,0
2016-11-16T04:03:49.386Z,0
2016-11-16T04:04:29.920Z,0
2016-11-16T04:05:10.457Z,0
2016-11-16T04:05:50.990Z,0
2016-11-16T04:06:31.530Z,0
2016-11-16T04:07:12.070Z,0
2016-11-16T04:07:52.609Z,0
2016-11-16T04:08:33.140Z,0
2016-11-16T04:09:13.673Z,0
2016-11-16T04:09:54.230Z,0
2016-11-16T04:10:34.745Z,0
2016-11-16T04:11:15.254Z,0
2016-11-16T04:11:55.774Z,0
2016-11-16T04:12:36.311Z,0
2016-11-16T04:13:16.816Z,0
2016-11-16T04:13:57.323Z,0
2016-11-16T04:14:37.827Z,0
2016-11-16T04:15:18.310Z,0
2016-11-16T04:15:58.835Z,0
2016-11-16T04:16:39.329Z,0
2016-11-16T04:17:19.833Z,0
2016-11-16T04:18:00.349Z,0
2016-11-16T04:18:40.890Z,0
2016-11-16T04:19:21.401Z,0
2016-11-16T04:20:01.887Z,0
2016-11-16T04:20:42.383Z,0
2016-11-16T04:21:22.887Z,0
2016-11-16T04:22:03.378Z,0
2016-11-16T04:22:43.884Z,0
2016-11-16T04:23:24.397Z,0
2016-11-16T04:24:04.889Z,0
2016-11-16T04:24:45.408Z,0
2016-11-16T04:25:25.925Z,0
2016-11-16T04:26:06.446Z,0
2016-11-16T04:26:46.968Z,0
2016-11-16T04:27:27.497Z,0
2016-11-16T04:28:08.231Z,0
2016-11-16T04:28:48.753Z,0
2016-11-16T04:29:29.292Z,0
2016-11-16T04:30:09.771Z,0
2016-11-16T04:30:50.275Z,0
2016-11-16T04:31:30.800Z,0
2016-11-16T04:32:11.292Z,0
2016-11-16T04:32:51.785Z,0
2016-11-16T04:33:32.500Z,0
2016-11-16T04:34:13.059Z,0
2016-11-16T04:34:53.599Z,0
2016-11-16T04:35:34.104Z,0
2016-11-16T04:36:14.597Z,0
2016-11-16T04:36:55.090Z,0
2016-11-16T04:37:35.608Z,0
2016-11-16T04:38:16.115Z,0
2016-11-16T04:38:56.634Z,0
2016-11-16T04:39:37.124Z,0
2016-11-16T04:40:17.613Z,0
2016-11-16T04:40:58.151Z,0
2016-11-16T04:41:38.658Z,0
2016-11-16T04:42:19.170Z,0
2016-11-16T04:42:59.670Z,0
2016-11-16T04:43:40.167Z,0
2016-11-16T04:44:20.667Z,0
2016-11-16T04:45:01.187Z,0
2016-11-16T04:45:41.734Z,0
2016-11-16T04:46:24.006Z,0
2016-11-16T04:47:04.095Z,0
2016-11-16T04:49:04.400Z,0
2016-11-16T04:49:44.922Z,0
2016-11-16T04:50:25.459Z,0
2016-11-16T04:51:06.011Z,0
2016-11-16T04:51:46.551Z,0
2016-11-16T04:52:27.105Z,0
2016-11-16T04:53:07.640Z,0
2016-11-16T04:53:48.179Z,0
2016-11-16T04:54:28.705Z,0
2016-11-16T04:55:09.236Z,0
2016-11-16T04:55:49.768Z,0
2016-11-16T04:56:30.281Z,0
2016-11-16T04:57:10.808Z,0
2016-11-16T04:57:51.318Z,0
2016-11-16T04:58:31.863Z,0
2016-11-16T04:59:12.385Z,0
2016-11-16T04:59:52.933Z,0
2016-11-16T05:00:33.459Z,0
2016-11-16T05:01:14.027Z,0
2016-11-16T05:01:54.526Z,0
2016-11-16T05:02:35.065Z,0
2016-11-16T05:03:15.587Z,0
2016-11-16T05:03:56.124Z,0
2016-11-16T05:04:36.667Z,0
2016-11-16T05:05:17.179Z,0
2016-11-16T05:05:57.729Z,0
2016-11-16T05:06:38.254Z,0
2016-11-16T05:07:18.785Z,0
2016-11-16T05:07:59.312Z,0
2016-11-16T05:08:39.835Z,0
2016-11-16T05:09:20.373Z,0
2016-11-16T05:10:00.907Z,0
2016-11-16T05:10:41.439Z,0
2016-11-16T05:11:21.994Z,0
2016-11-16T05:12:02.468Z,0
2016-11-16T05:12:43.010Z,0
2016-11-16T05:13:23.549Z,0
2016-11-16T05:14:04.088Z,0
2016-11-16T05:14:44.621Z,0
2016-11-16T05:15:25.170Z,0
2016-11-16T05:16:05.698Z,0
2016-11-16T05:16:46.232Z,0
2016-11-16T05:17:26.776Z,0
2016-11-16T05:18:07.298Z,0
2016-11-16T05:18:47.858Z,0
2016-11-16T05:19:28.406Z,0
2016-11-16T05:20:08.946Z,0
2016-11-16T05:20:49.475Z,0
2016-11-16T05:21:30.011Z,0
2016-11-16T05:22:10.611Z,0
2016-11-16T05:22:51.150Z,0
2016-11-16T05:23:31.664Z,0
2016-11-16T05:24:12.234Z,0
2016-11-16T05:24:54.647Z,0
2016-11-16T05:25:34.547Z,0
2016-11-16T05:26:14.988Z,0
2016-11-16T05:26:55.479Z,0
2016-11-16T05:27:36.017Z,0
2016-11-16T05:28:16.561Z,0
2016-11-16T05:28:57.080Z,0
2016-11-16T05:29:37.621Z,0
2016-11-16T05:30:18.165Z,0
2016-11-16T05:30:58.687Z,0
2016-11-16T05:31:39.219Z,0
2016-11-16T05:32:19.737Z,0
2016-11-16T05:33:00.273Z,0
2016-11-16T05:33:40.799Z,0
2016-11-16T05:34:21.333Z,0
2016-11-16T05:35:01.850Z,0
2016-11-16T05:35:42.384Z,0
2016-11-16T05:36:22.917Z,0
2016-11-16T05:37:03.456Z,0
2016-11-16T05:37:43.989Z,0
2016-11-16T05:38:24.546Z,0
2016-11-16T05:39:05.087Z,0
2016-11-16T05:39:45.618Z,0
2016-11-16T05:40:26.139Z,0
2016-11-16T05:41:06.675Z,0
2016-11-16T05:41:47.214Z,0
2016-11-16T05:42:27.750Z,0
2016-11-16T05:43:08.278Z,0
2016-11-16T05:43:48.794Z,0
2016-11-16T05:44:29.331Z,0
2016-11-16T05:45:09.873Z,0
2016-11-16T05:45:50.408Z,0
2016-11-16T05:46:30.983Z,0
2016-11-16T05:47:11.535Z,0
2016-11-16T05:47:52.076Z,0
2016-11-16T05:48:32.605Z,0
2016-11-16T05:49:13.148Z,0
2016-11-16T05:49:53.697Z,0
2016-11-16T05:50:34.227Z,0
2016-11-16T05:51:14.766Z,0
2016-11-16T05:51:55.302Z,0
2016-11-16T05:52:35.839Z,0
2016-11-16T05:53:16.389Z,0
2016-11-16T05:53:56.933Z,0
2016-11-16T05:54:37.463Z,0
2016-11-16T05:55:18.018Z,0
2016-11-16T05:55:58.549Z,0
2016-11-16T05:56:39.137Z,0
2016-11-16T05:57:19.692Z,0
2016-11-16T05:58:00.235Z,0
2016-11-16T05:58:40.770Z,0
2016-11-16T05:59:21.287Z,0
2016-11-16T06:00:01.805Z,0
2016-11-16T06:00:42.338Z,0
2016-11-16T06:01:22.889Z,0
2016-11-16T06:02:03.436Z,0
2016-11-16T06:02:43.963Z,0
2016-11-16T06:03:24.508Z,0
2016-11-16T06:04:05.038Z,0
2016-11-16T06:04:45.586Z,0
2016-11-16T06:05:26.112Z,0
2016-11-16T06:06:06.640Z,0
2016-11-16T06:06:47.208Z,0
2016-11-16T06:07:27.770Z,0
2016-11-16T06:08:08.307Z,0
2016-11-16T06:08:48.842Z,0
2016-11-16T06:09:29.389Z,0
2016-11-16T06:10:09.920Z,0
2016-11-16T06:10:50.443Z,0
2016-11-16T06:11:30.989Z,0
2016-11-16T06:12:11.493Z,0
2016-11-16T06:12:52.011Z,0
2016-11-16T06:13:32.545Z,0
2016-11-16T06:14:13.065Z,0
2016-11-16T06:14:53.599Z,0
2016-11-16T06:15:34.127Z,0
2016-11-16T06:16:14.652Z,0
2016-11-16T06:16:55.202Z,0
2016-11-16T06:17:35.723Z,0
2016-11-16T06:18:16.261Z,0
2016-11-16T06:18:56.785Z,0
2016-11-16T06:19:37.325Z,0
2016-11-16T06:20:17.876Z,0
2016-11-16T06:20:58.389Z,0
2016-11-16T06:21:38.924Z,0
2016-11-16T06:22:19.469Z,0
2016-11-16T06:22:59.999Z,0
2016-11-16T06:23:40.536Z,0
2016-11-16T06:24:21.078Z,0
2016-11-16T06:25:01.607Z,0
2016-11-16T06:25:42.144Z,0
2016-11-16T06:26:22.683Z,0
2016-11-16T06:27:03.223Z,0
2016-11-16T06:27:44.741Z,0
2016-11-16T06:28:25.273Z,0
2016-11-16T06:29:05.810Z,0
2016-11-16T06:29:46.339Z,0
2016-11-16T06:30:26.875Z,0
2016-11-16T06:31:07.402Z,0
2016-11-16T06:31:47.923Z,0
2016-11-16T06:32:28.447Z,4
2016-11-16T06:33:08.976Z,4
2016-11-16T06:33:49.547Z,4
2016-11-16T06:34:30.091Z,4
2016-11-16T06:35:10.625Z,4
2016-11-16T06:35:51.158Z,4
2016-11-16T06:36:31.663Z,4
2016-11-16T06:37:12.206Z,4
2016-11-16T06:37:52.741Z,4
2016-11-16T06:38:33.266Z,8
2016-11-16T06:39:13.838Z,8
2016-11-16T06:39:54.376Z,8
2016-11-16T06:40:34.905Z,8
2016-11-16T06:41:15.441Z,8
2016-11-16T06:41:55.951Z,8
2016-11-16T06:42:36.480Z,8
2016-11-16T06:43:17.008Z,8
2016-11-16T06:43:57.540Z,12
2016-11-16T06:44:38.062Z,12
2016-11-16T06:45:18.588Z,12
2016-11-16T06:45:59.147Z,12
2016-11-16T06:46:39.678Z,12
2016-11-16T06:47:20.230Z,12
2016-11-16T06:48:00.746Z,12
2016-11-16T06:48:41.295Z,12
2016-11-16T06:49:21.823Z,12
2016-11-16T06:50:02.359Z,12
2016-11-16T06:50:42.873Z,12
2016-11-16T06:51:23.407Z,12
2016-11-16T06:52:03.932Z,12
2016-11-16T06:52:44.462Z,20
2016-11-16T06:53:24.988Z,16
2016-11-16T06:54:05.520Z,20
2016-11-16T06:54:46.046Z,24
2016-11-16T06:55:26.563Z,24
2016-11-16T06:56:07.114Z,28
2016-11-16T06:56:47.649Z,28
2016-11-16T06:57:28.153Z,28
2016-11-16T06:58:08.663Z,32
2016-11-16T06:58:49.186Z,32
2016-11-16T06:59:29.667Z,36
2016-11-16T07:00:10.204Z,32
2016-11-16T07:00:50.781Z,40
2016-11-16T07:01:31.308Z,40
2016-11-16T07:02:11.837Z,44
2016-11-16T07:02:52.371Z,48
2016-11-16T07:03:32.896Z,52
2016-11-16T07:04:13.420Z,52
2016-11-16T07:04:53.964Z,56
2016-11-16T07:05:34.496Z,60
2016-11-16T07:06:15.024Z,56
2016-11-16T07:06:55.545Z,56
2016-11-16T07:07:36.077Z,56
2016-11-16T07:08:16.620Z,52
2016-11-16T07:08:57.161Z,52
2016-11-16T07:09:37.682Z,52
2016-11-16T07:10:18.234Z,52
2016-11-16T07:10:58.740Z,56
2016-11-16T07:11:39.256Z,56
2016-11-16T07:12:19.819Z,60
2016-11-16T07:13:00.349Z,64
2016-11-16T07:13:40.851Z,64
2016-11-16T07:14:21.435Z,72
2016-11-16T07:15:01.972Z,76
2016-11-16T07:15:42.476Z,84
2016-11-16T07:16:23.011Z,88
2016-11-16T07:17:03.538Z,92
2016-11-16T07:17:44.055Z,96
2016-11-16T07:18:24.582Z,108
2016-11-16T07:19:05.119Z,116
2016-11-16T07:19:45.657Z,128
2016-11-16T07:20:26.189Z,144
2016-11-16T07:21:06.713Z,168
2016-11-16T07:21:47.230Z,184
2016-11-16T07:22:27.768Z,204
2016-11-16T07:23:08.309Z,224
2016-11-16T07:23:48.841Z,240
2016-11-16T07:24:29.356Z,248
2016-11-16T07:25:09.886Z,240
2016-11-16T07:25:50.426Z,232
2016-11-16T07:26:30.954Z,240
2016-11-16T07:27:11.473Z,248
2016-11-16T07:27:52.010Z,248
2016-11-16T07:28:32.629Z,264
2016-11-16T07:29:13.174Z,272
2016-11-16T07:29:53.696Z,264
2016-11-16T07:30:34.237Z,272
2016-11-16T07:31:14.772Z,280
2016-11-16T07:31:55.306Z,280
2016-11-16T07:32:35.838Z,256
2016-11-16T07:33:16.385Z,252
2016-11-16T07:33:56.932Z,240
2016-11-16T07:34:37.458Z,228
2016-11-16T07:35:17.997Z,208
2016-11-16T07:35:58.758Z,204
2016-11-16T07:36:39.319Z,212
2016-11-16T07:37:19.857Z,220
2016-11-16T07:38:00.406Z,236
2016-11-16T07:38:40.916Z,252
2016-11-16T07:39:21.493Z,228
2016-11-16T07:40:02.044Z,228
2016-11-16T07:40:42.702Z,248
2016-11-16T07:41:23.202Z,252
2016-11-16T07:42:03.753Z,252
2016-11-16T07:42:44.291Z,244
2016-11-16T07:43:24.841Z,244
2016-11-16T07:44:05.378Z,244
2016-11-16T07:44:45.929Z,240
2016-11-16T07:45:26.446Z,244
2016-11-16T07:46:07.016Z,256
2016-11-16T07:46:47.527Z,288
2016-11-16T07:47:28.056Z,288
2016-11-16T07:48:08.611Z,280
2016-11-16T07:48:49.150Z,256
2016-11-16T07:49:29.693Z,232
2016-11-16T07:50:10.215Z,208
2016-11-16T07:50:50.737Z,176
2016-11-16T07:51:31.269Z,172
2016-11-16T07:52:11.814Z,180
2016-11-16T07:52:52.354Z,176
2016-11-16T07:53:32.899Z,188
2016-11-16T07:54:13.426Z,192
2016-11-16T07:54:53.942Z,200
2016-11-16T07:55:34.481Z,208
2016-11-16T07:56:15.009Z,208
2016-11-16T07:56:55.538Z,212
2016-11-16T07:57:36.043Z,208
2016-11-16T07:58:16.567Z,212
2016-11-16T07:58:57.112Z,220
2016-11-16T07:59:37.659Z,240
2016-11-16T08:00:18.184Z,248
2016-11-16T08:00:58.729Z,252
2016-11-16T08:01:39.259Z,228
2016-11-16T08:02:19.806Z,208
2016-11-16T08:03:00.326Z,204
2016-11-16T08:03:40.863Z,200
2016-11-16T08:04:21.402Z,200
2016-11-16T08:05:01.930Z,200
2016-11-16T08:05:42.471Z,208
2016-11-16T08:06:23.007Z,212
2016-11-16T08:07:03.530Z,208
2016-11-16T08:07:44.072Z,212
2016-11-16T08:08:24.611Z,228
2016-11-16T08:09:05.130Z,228
2016-11-16T08:09:45.680Z,240
2016-11-16T08:10:26.204Z,268
2016-11-16T08:11:06.738Z,308
2016-11-16T08:11:47.269Z,304
2016-11-16T08:12:27.803Z,316
2016-11-16T08:13:08.347Z,340
2016-11-16T08:13:48.892Z,380
2016-11-16T08:14:29.418Z,412
2016-11-16T08:15:09.950Z,452
2016-11-16T08:15:50.484Z,484
2016-11-16T08:16:31.028Z,500
2016-11-16T08:17:11.564Z,524
2016-11-16T08:17:52.090Z,552
2016-11-16T08:18:32.638Z,608
2016-11-16T08:19:13.164Z,656
2016-11-16T08:19:53.686Z,660
2016-11-16T08:20:34.235Z,676
2016-11-16T08:21:14.787Z,652
2016-11-16T08:21:55.330Z,640
2016-11-16T08:22:35.890Z,628
2016-11-16T08:23:16.440Z,600
2016-11-16T08:23:56.958Z,600
2016-11-16T08:24:37.494Z,608
2016-11-16T08:25:18.028Z,624
2016-11-16T08:25:58.545Z,648
2016-11-16T08:26:39.090Z,648
2016-11-16T08:27:19.630Z,660
2016-11-16T08:28:00.150Z,676
2016-11-16T08:28:40.695Z,732
2016-11-16T08:29:21.223Z,756
2016-11-16T08:30:01.755Z,756
2016-11-16T08:30:42.291Z,780
2016-11-16T08:31:22.836Z,828
2016-11-16T08:32:03.353Z,888
2016-11-16T08:32:43.879Z,900
2016-11-16T08:33:24.407Z,868
2016-11-16T08:34:04.942Z,912
2016-11-16T08:34:45.466Z,1012
2016-11-16T08:35:25.984Z,1020
2016-11-16T08:36:06.516Z,1012
2016-11-16T08:36:47.052Z,924
2016-11-16T08:37:27.578Z,828
2016-11-16T08:38:08.110Z,796
2016-11-16T08:38:48.632Z,820
2016-11-16T08:39:29.183Z,780
2016-11-16T08:40:09.694Z,644
2016-11-16T08:40:50.239Z,584
2016-11-16T08:41:30.776Z,644
2016-11-16T08:42:11.321Z,604
2016-11-16T08:42:51.855Z,584
2016-11-16T08:43:32.431Z,552
2016-11-16T08:44:12.966Z,532
2016-11-16T08:44:53.523Z,480
2016-11-16T08:45:34.060Z,480
2016-11-16T08:46:14.609Z,480
2016-11-16T08:46:55.139Z,448
2016-11-16T08:47:35.685Z,456
2016-11-16T08:48:16.210Z,508
2016-11-16T08:48:56.749Z,524
2016-11-16T08:49:37.298Z,516
2016-11-16T08:50:17.827Z,556
2016-11-16T08:50:58.360Z,548
2016-11-16T08:51:38.893Z,512
2016-11-16T08:52:19.421Z,492
2016-11-16T08:52:59.952Z,468
2016-11-16T08:53:40.505Z,496
2016-11-16T08:54:21.040Z,524
2016-11-16T08:55:01.579Z,520
2016-11-16T08:55:42.106Z,512
2016-11-16T08:56:22.646Z,548
2016-11-16T08:57:03.163Z,580
2016-11-16T08:57:43.710Z,608
2016-11-16T08:58:24.254Z,624
2016-11-16T08:59:04.788Z,648
2016-11-16T08:59:45.333Z,620
2016-11-16T09:00:25.892Z,676
2016-11-16T09:01:06.435Z,660
2016-11-16T09:01:46.973Z,752
2016-11-16T09:02:27.501Z,872
2016-11-16T09:03:08.005Z,892
2016-11-16T09:03:48.533Z,900
2016-11-16T09:04:29.059Z,832
2016-11-16T09:05:09.565Z,808
2016-11-16T09:05:50.116Z,900
2016-11-16T09:06:30.650Z,964
2016-11-16T09:07:11.197Z,1024
2016-11-16T09:07:51.724Z,1064
2016-11-16T09:08:32.267Z,1116
2016-11-16T09:09:12.775Z,1188
2016-11-16T09:09:53.300Z,1224
2016-11-16T09:10:33.831Z,1204
2016-11-16T09:11:14.377Z,1020
2016-11-16T09:11:54.907Z,928
2016-11-16T09:12:35.456Z,832
2016-11-16T09:13:15.974Z,756
2016-11-16T09:13:56.522Z,672
2016-11-16T09:14:37.072Z,684
2016-11-16T09:15:17.623Z,604
2016-11-16T09:15:58.168Z,536
2016-11-16T09:16:38.710Z,496
2016-11-16T09:17:19.226Z,472
2016-11-16T09:17:59.739Z,500
2016-11-16T09:18:40.275Z,544
2016-11-16T09:19:20.804Z,576
2016-11-16T09:20:01.354Z,568
2016-11-16T09:20:41.860Z,600
2016-11-16T09:21:22.381Z,628
2016-11-16T09:22:02.915Z,660
2016-11-16T09:22:43.442Z,692
2016-11-16T09:23:23.963Z,664
2016-11-16T09:24:04.484Z,680
2016-11-16T09:24:45.014Z,668
2016-11-16T09:25:25.560Z,676
2016-11-16T09:26:06.108Z,676
2016-11-16T09:26:46.648Z,652
2016-11-16T09:27:27.186Z,640
2016-11-16T09:28:07.715Z,608
2016-11-16T09:28:48.232Z,596
2016-11-16T09:29:28.761Z,644
2016-11-16T09:30:09.306Z,596
2016-11-16T09:30:49.852Z,604
2016-11-16T09:31:30.381Z,688
2016-11-16T09:32:10.909Z,700
2016-11-16T09:32:51.430Z,724
2016-11-16T09:33:31.969Z,792
2016-11-16T09:34:12.494Z,800
2016-11-16T09:34:53.028Z,796
2016-11-16T09:35:33.544Z,812
2016-11-16T09:36:14.077Z,792
2016-11-16T09:36:54.619Z,808
2016-11-16T09:37:35.156Z,876
2016-11-16T09:38:15.686Z,864
2016-11-16T09:38:56.225Z,900
2016-11-16T09:39:36.741Z,936
2016-11-16T09:40:17.282Z,972
2016-11-16T09:40:57.820Z,1040
2016-11-16T09:41:38.348Z,1064
2016-11-16T09:42:18.870Z,1068
2016-11-16T09:42:59.398Z,1108
2016-11-16T09:43:39.920Z,1136
2016-11-16T09:44:20.440Z,1096
2016-11-16T09:45:00.952Z,992
2016-11-16T09:45:41.488Z,1004
2016-11-16T09:46:22.029Z,1060
2016-11-16T09:47:02.566Z,1128
2016-11-16T09:47:43.098Z,1120
2016-11-16T09:48:23.612Z,1160
2016-11-16T09:49:04.137Z,1280
2016-11-16T09:49:44.663Z,1264
2016-11-16T09:50:25.217Z,1300
2016-11-16T09:51:05.758Z,1284
2016-11-16T09:51:46.303Z,1164
2016-11-16T09:52:26.852Z,1068
2016-11-16T09:53:07.387Z,1020
2016-11-16T09:53:47.908Z,1068
2016-11-16T09:54:28.442Z,1124
2016-11-16T09:55:08.998Z,1236
2016-11-16T09:55:49.531Z,1256
2016-11-16T09:56:30.067Z,1276
2016-11-16T09:57:10.597Z,1120
2016-11-16T09:57:51.115Z,1064
2016-11-16T09:58:31.634Z,1000
2016-11-16T09:59:12.155Z,944
2016-11-16T09:59:52.669Z,920
2016-11-16T10:00:33.242Z,904
2016-11-16T10:01:13.769Z,908
2016-11-16T10:01:54.296Z,928
2016-11-16T10:02:34.829Z,972
2016-11-16T10:03:15.363Z,980
2016-11-16T10:03:55.886Z,1012
2016-11-16T10:04:36.419Z,980
2016-11-16T10:05:16.954Z,1004
2016-11-16T10:05:57.492Z,1072
2016-11-16T10:06:38.031Z,1168
2016-11-16T10:07:18.569Z,1240
2016-11-16T10:07:59.097Z,1264
2016-11-16T10:08:39.637Z,1228
2016-11-16T10:09:20.167Z,1312
2016-11-16T10:10:00.696Z,1280
2016-11-16T10:10:41.235Z,1256
2016-11-16T10:11:21.771Z,1208
2016-11-16T10:12:02.331Z,1164
2016-11-16T10:12:42.864Z,1176
2016-11-16T10:13:23.407Z,1264
2016-11-16T10:14:03.944Z,1176
2016-11-16T10:14:44.483Z,1100
2016-11-16T10:15:25.011Z,1032
2016-11-16T10:16:05.552Z,1084
2016-11-16T10:16:46.092Z,1060
2016-11-16T10:17:26.617Z,1084
2016-11-16T10:18:07.151Z,1000
2016-11-16T10:18:47.697Z,952
2016-11-16T10:19:28.219Z,1084
2016-11-16T10:20:08.755Z,1212
2016-11-16T10:20:49.291Z,1184
2016-11-16T10:21:29.831Z,1092
2016-11-16T10:22:10.360Z,996
2016-11-16T10:22:50.885Z,928
2016-11-16T10:23:31.427Z,920
2016-11-16T10:24:11.948Z,988
2016-11-16T10:24:52.495Z,1084